Time;durP1;ratioP1;P1;durP2;ratioP2;P2;SDS_P1;SDS_P2;PMS_P1;PMS_P2;Temp;Humidity;BMP_temperature;BMP_pressure;BME280_temperature;BME280_humidity;BME280_pressure;Samples;Min_cycle;Max_cycle;Signal;HPM_P1;HPM_P2
2023/07/31 00:02:07;;;;;;;4.93;3.58;;;16.10;99.90;;;;;;5055566;28;20059;-70
2023/07/31 00:04:32;;;;;;;3.50;2.92;;;16.10;99.90;;;;;;5038392;28;20048;-70
2023/07/31 00:06:58;;;;;;;4.20;3.03;;;16.10;99.90;;;;;;5055427;28;20049;-68
2023/07/31 00:09:24;;;;;;;4.00;3.00;;;16.10;99.90;;;;;;5037661;28;20107;-68
2023/07/31 00:11:49;;;;;;;6.13;3.28;;;16.00;99.90;;;;;;5055251;28;20124;-67
2023/07/31 00:14:15;;;;;;;5.05;3.58;;;16.00;99.90;;;;;;5055241;28;20056;-68
2023/07/31 00:16:41;;;;;;;5.43;3.33;;;16.00;99.90;;;;;;5037598;28;20049;-67
2023/07/31 00:19:06;;;;;;;4.35;2.75;;;16.00;99.90;;;;;;5055171;28;20139;-67
2023/07/31 00:21:32;;;;;;;4.30;3.22;;;16.00;99.90;;;;;;5055047;28;20419;-70
2023/07/31 00:23:58;;;;;;;5.25;3.17;;;15.90;99.90;;;;;;5056074;28;20367;-68
2023/07/31 00:26:23;;;;;;;7.60;3.88;;;16.00;99.90;;;;;;5054648;28;20095;-67
2023/07/31 00:28:49;;;;;;;4.75;3.47;;;16.00;99.90;;;;;;5055373;28;20055;-67
2023/07/31 00:31:15;;;;;;;5.38;3.83;;;15.90;99.90;;;;;;5055219;28;20048;-67
2023/07/31 00:33:40;;;;;;;4.32;3.28;;;15.90;99.90;;;;;;5054923;28;20053;-67
2023/07/31 00:36:06;;;;;;;4.10;2.95;;;15.90;99.90;;;;;;5054490;28;20133;-67
2023/07/31 00:38:32;;;;;;;4.20;3.60;;;15.90;99.90;;;;;;5054826;28;20052;-68
2023/07/31 00:40:57;;;;;;;7.95;3.90;;;15.90;99.90;;;;;;5037332;28;20076;-69
2023/07/31 00:43:23;;;;;;;3.67;3.15;;;15.90;99.90;;;;;;5054379;28;20095;-67
2023/07/31 00:45:49;;;;;;;5.05;3.47;;;15.90;99.90;;;;;;5054852;28;20087;-68
2023/07/31 00:48:14;;;;;;;3.33;2.78;;;15.80;99.90;;;;;;5055280;28;20045;-68
2023/07/31 00:50:40;;;;;;;4.05;3.35;;;15.80;99.90;;;;;;5037044;28;20608;-67
2023/07/31 00:53:06;;;;;;;4.28;3.78;;;15.90;99.90;;;;;;5054699;28;20044;-67
2023/07/31 00:55:32;;;;;;;3.67;3.30;;;15.90;99.90;;;;;;5054097;28;20514;-69
2023/07/31 00:57:58;;;;;;;3.80;3.05;;;15.90;99.90;;;;;;5054467;28;20056;-68
2023/07/31 01:00:23;;;;;;;4.57;3.25;;;15.90;99.90;;;;;;5054488;28;20052;-67
2023/07/31 01:02:51;;;;;;;3.10;2.80;;;15.80;99.90;;;;;;5053871;28;20051;-67
2023/07/31 01:05:22;;;;;;;5.10;3.25;;;15.90;99.90;;;;;;5054284;28;20080;-68
2023/07/31 01:08:03;;;;;;;4.70;3.10;;;15.80;99.90;;;;;;5054664;28;20049;-70
2023/07/31 01:10:41;;;;;;;3.33;2.97;;;15.90;99.90;;;;;;5054819;28;20076;-68
2023/07/31 01:13:08;;;;;;;4.68;2.83;;;15.80;99.90;;;;;;5053792;28;20496;-67
2023/07/31 01:15:33;;;;;;;3.45;2.85;;;15.90;99.90;;;;;;5054044;28;20057;-67
2023/07/31 01:17:59;;;;;;;3.75;2.97;;;15.80;99.90;;;;;;5054252;28;20127;-67
2023/07/31 01:20:29;;;;;;;4.00;2.60;;;15.80;99.90;;;;;;5053907;28;20523;-68
2023/07/31 01:23:23;;;;;;;3.30;3.00;;;15.90;99.90;;;;;;5053690;28;20061;-67
2023/07/31 01:26:09;;;;;;;4.28;2.80;;;15.80;99.90;;;;;;5054107;28;20056;-67
2023/07/31 01:29:07;;;;;;;4.32;3.03;;;15.90;99.90;;;;;;5036474;28;20083;-68
2023/07/31 01:31:33;;;;;;;3.45;2.65;;;15.80;99.90;;;;;;5039458;28;20068;-67
2023/07/31 01:34:03;;;;;;;2.70;2.50;;;15.80;99.90;;;;;;5054275;28;20115;-67
2023/07/31 01:36:31;;;;;;;3.20;2.80;;;15.80;99.90;;;;;;5054193;28;20136;-67
2023/07/31 01:39:01;;;;;;;3.70;2.15;;;15.80;99.90;;;;;;5053564;28;20049;-67
2023/07/31 01:41:27;;;;;;;3.10;2.03;;;15.90;99.90;;;;;;5053552;28;20066;-67
2023/07/31 01:43:53;;;;;;;2.03;1.83;;;15.80;99.90;;;;;;5053938;28;20567;-68
2023/07/31 01:46:18;;;;;;;2.22;2.03;;;15.80;99.90;;;;;;5053637;28;20127;-67
2023/07/31 01:48:44;;;;;;;2.15;1.95;;;15.80;99.90;;;;;;5036140;28;20473;-68
2023/07/31 01:51:10;;;;;;;2.60;2.25;;;15.70;99.90;;;;;;5053481;28;20099;-69
2023/07/31 01:53:35;;;;;;;1.73;1.58;;;15.80;99.90;;;;;;5036356;28;20045;-68
2023/07/31 01:56:01;;;;;;;1.65;1.55;;;15.80;99.90;;;;;;5053711;28;20175;-68
2023/07/31 01:58:27;;;;;;;3.72;1.77;;;15.80;99.90;;;;;;5053264;28;20053;-68
2023/07/31 02:00:52;;;;;;;1.40;1.10;;;15.80;99.90;;;;;;5053374;28;20114;-68
2023/07/31 02:03:18;;;;;;;3.10;1.52;;;15.80;99.90;;;;;;5052777;28;20143;-68
2023/07/31 02:05:48;;;;;;;1.83;1.42;;;15.80;99.90;;;;;;5053262;28;20045;-69
2023/07/31 02:08:14;;;;;;;1.20;1.08;;;15.80;99.90;;;;;;5053504;28;20051;-68
2023/07/31 02:10:40;;;;;;;2.38;1.30;;;15.80;99.90;;;;;;5053141;28;20041;-70
2023/07/31 02:13:06;;;;;;;1.17;1.08;;;15.80;99.90;;;;;;5052960;28;20044;-68
2023/07/31 02:15:32;;;;;;;2.70;1.15;;;15.80;99.90;;;;;;5035488;28;20067;-68
2023/07/31 02:17:58;;;;;;;1.85;1.10;;;15.80;99.90;;;;;;5053404;28;20091;-69
2023/07/31 02:20:23;;;;;;;1.20;1.10;;;15.80;99.90;;;;;;5035142;28;20045;-67
2023/07/31 02:22:49;;;;;;;0.80;0.70;;;15.90;99.90;;;;;;5052889;28;20111;-68
2023/07/31 02:25:15;;;;;;;1.17;0.95;;;15.80;99.90;;;;;;5035779;28;20438;-68
2023/07/31 02:27:41;;;;;;;1.95;0.90;;;15.80;99.90;;;;;;5034948;28;20041;-68
2023/07/31 02:30:07;;;;;;;1.00;0.80;;;15.70;99.90;;;;;;5035443;28;20128;-67
2023/07/31 02:32:33;;;;;;;1.92;0.77;;;15.80;99.90;;;;;;5053240;28;20179;-68
2023/07/31 02:34:58;;;;;;;2.08;0.90;;;15.80;99.90;;;;;;5053280;28;20489;-68
2023/07/31 02:37:25;;;;;;;0.88;0.80;;;15.80;99.90;;;;;;5053218;28;20045;-68
2023/07/31 02:39:51;;;;;;;1.83;1.10;;;15.80;99.90;;;;;;5052912;28;20053;-66
2023/07/31 02:42:16;;;;;;;1.42;1.05;;;15.80;99.90;;;;;;5034513;28;20094;-67
2023/07/31 02:44:42;;;;;;;1.35;0.95;;;15.80;99.90;;;;;;5034475;28;20053;-69
2023/07/31 02:47:08;;;;;;;0.77;0.77;;;15.80;99.90;;;;;;5052418;28;20083;-67
2023/07/31 02:49:33;;;;;;;1.55;1.02;;;15.80;99.90;;;;;;5052759;28;20049;-67
2023/07/31 02:51:59;;;;;;;2.45;1.17;;;15.80;99.90;;;;;;5052872;28;20049;-67
2023/07/31 02:54:25;;;;;;;1.98;0.88;;;15.80;99.90;;;;;;5034688;28;20057;-68
2023/07/31 02:56:50;;;;;;;0.93;0.77;;;15.80;99.90;;;;;;5052118;28;20133;-67
2023/07/31 02:59:17;;;;;;;3.47;1.20;;;15.80;99.90;;;;;;5052407;28;20481;-67
2023/07/31 03:01:42;;;;;;;0.80;0.75;;;15.80;99.90;;;;;;5052229;28;20037;-67
2023/07/31 03:04:08;;;;;;;1.65;0.98;;;15.80;99.90;;;;;;5052333;28;20056;-67
2023/07/31 03:06:34;;;;;;;1.00;0.90;;;15.80;99.90;;;;;;5052386;28;20049;-68
2023/07/31 03:08:59;;;;;;;0.98;0.98;;;15.80;99.90;;;;;;5052789;28;20098;-67
2023/07/31 03:11:25;;;;;;;2.47;1.10;;;15.80;99.90;;;;;;5052548;28;20510;-67
2023/07/31 03:13:51;;;;;;;1.40;1.30;;;15.90;99.90;;;;;;5052571;28;20423;-67
2023/07/31 03:16:16;;;;;;;1.20;1.10;;;15.90;99.90;;;;;;5052146;28;20049;-66
2023/07/31 03:18:42;;;;;;;1.65;0.98;;;15.90;99.90;;;;;;5034683;28;20116;-66
2023/07/31 03:21:08;;;;;;;2.13;1.13;;;15.90;99.90;;;;;;5052107;28;20040;-67
2023/07/31 03:23:33;;;;;;;1.10;1.00;;;15.80;99.90;;;;;;5051725;28;20102;-67
2023/07/31 03:26:02;;;;;;;0.70;0.70;;;15.90;99.90;;;;;;5055020;28;20045;-66
2023/07/31 03:28:29;;;;;;;0.60;0.60;;;15.90;99.90;;;;;;5056092;28;20110;-66
2023/07/31 03:30:54;;;;;;;1.08;0.98;;;15.90;99.90;;;;;;5038289;28;20049;-67
2023/07/31 03:33:20;;;;;;;0.70;0.70;;;15.90;99.90;;;;;;5056078;28;20128;-66
2023/07/31 03:35:46;;;;;;;4.00;0.85;;;16.00;99.90;;;;;;5055997;28;20124;-67
2023/07/31 03:38:12;;;;;;;1.17;0.88;;;16.00;99.90;;;;;;5055983;28;20049;-68
2023/07/31 03:40:37;;;;;;;0.80;0.80;;;16.00;99.90;;;;;;5055897;28;20073;-66
2023/07/31 03:43:03;;;;;;;3.08;1.10;;;16.00;99.90;;;;;;5056380;28;20059;-66
2023/07/31 03:45:29;;;;;;;1.70;0.90;;;16.20;99.90;;;;;;5055884;28;20480;-68
2023/07/31 03:47:54;;;;;;;0.80;0.80;;;16.00;99.90;;;;;;5056188;28;20045;-68
2023/07/31 03:50:20;;;;;;;1.00;0.93;;;16.00;99.90;;;;;;5056301;28;20525;-66
2023/07/31 03:52:46;;;;;;;1.35;0.90;;;16.00;99.90;;;;;;5037989;28;20040;-67
2023/07/31 03:55:12;;;;;;;2.60;0.98;;;16.00;99.90;;;;;;5037859;28;20040;-67
2023/07/31 03:57:38;;;;;;;0.88;0.50;;;16.10;99.90;;;;;;5055556;28;20041;-67
2023/07/31 04:00:04;;;;;;;0.57;0.57;;;16.00;99.90;;;;;;5055916;28;20106;-66
2023/07/31 04:02:29;;;;;;;1.25;0.50;;;16.10;99.90;;;;;;5037739;28;20124;-66
2023/07/31 04:04:55;;;;;;;0.80;0.70;;;16.10;99.90;;;;;;5038153;28;20077;-66
2023/07/31 04:07:21;;;;;;;1.67;0.80;;;16.10;99.90;;;;;;5037772;28;20052;-66
2023/07/31 04:09:46;;;;;;;0.85;0.70;;;16.10;99.90;;;;;;5055399;28;20052;-65
2023/07/31 04:12:12;;;;;;;0.65;0.65;;;16.10;99.90;;;;;;5055344;28;20120;-66
2023/07/31 04:14:38;;;;;;;0.77;0.63;;;16.10;99.90;;;;;;5055323;28;20048;-66
2023/07/31 04:17:03;;;;;;;1.58;0.52;;;16.10;99.90;;;;;;5037788;28;20438;-66
2023/07/31 04:19:29;;;;;;;1.42;0.65;;;16.10;99.90;;;;;;5055862;28;20517;-66
2023/07/31 04:21:55;;;;;;;3.10;0.70;;;16.20;99.90;;;;;;5054584;28;20062;-66
2023/07/31 04:24:24;;;;;;;1.70;0.63;;;16.20;99.90;;;;;;5055155;28;20128;-66
2023/07/31 04:26:53;;;;;;;2.30;0.60;;;16.20;99.90;;;;;;5055041;28;20127;-66
2023/07/31 04:29:19;;;;;;;1.10;0.57;;;16.20;99.90;;;;;;5055251;28;20124;-67
2023/07/31 04:31:45;;;;;;;2.33;0.68;;;16.30;99.90;;;;;;5037834;28;20077;-67
2023/07/31 04:34:11;;;;;;;1.00;0.80;;;16.30;99.90;;;;;;5054510;28;20541;-66
2023/07/31 04:36:37;;;;;;;1.15;0.80;;;16.20;99.90;;;;;;5053682;28;20045;-66
2023/07/31 04:39:03;;;;;;;1.00;0.75;;;16.30;99.90;;;;;;5036933;28;20106;-68
2023/07/31 04:41:28;;;;;;;0.80;0.80;;;16.30;99.90;;;;;;5054084;28;20519;-66
2023/07/31 04:43:54;;;;;;;3.72;1.02;;;16.30;99.90;;;;;;5054833;28;20044;-66
2023/07/31 04:46:20;;;;;;;2.65;1.42;;;16.30;99.90;;;;;;5054265;28;20518;-66
2023/07/31 04:48:45;;;;;;;1.42;0.95;;;16.20;99.90;;;;;;5054280;28;20045;-66
2023/07/31 04:51:11;;;;;;;1.50;0.63;;;16.40;99.90;;;;;;5054358;28;20041;-68
2023/07/31 04:53:37;;;;;;;2.25;0.80;;;16.20;99.90;;;;;;5036553;28;20040;-67
2023/07/31 04:56:03;;;;;;;4.63;1.10;;;16.30;99.90;;;;;;5054396;28;20084;-69
2023/07/31 04:58:28;;;;;;;1.98;1.08;;;16.30;99.90;;;;;;5054370;28;20045;-66
2023/07/31 05:00:54;;;;;;;2.13;0.88;;;16.30;99.90;;;;;;5054670;28;20478;-66
2023/07/31 05:03:20;;;;;;;2.53;1.30;;;16.30;99.90;;;;;;5036346;28;20068;-67
2023/07/31 05:05:45;;;;;;;1.10;1.00;;;16.20;99.90;;;;;;5054275;28;20044;-66
2023/07/31 05:08:11;;;;;;;1.25;1.10;;;16.30;99.90;;;;;;5054040;28;20405;-66
2023/07/31 05:10:37;;;;;;;1.65;1.13;;;16.30;99.90;;;;;;5036011;28;20045;-68
2023/07/31 05:13:03;;;;;;;2.45;1.20;;;16.30;99.90;;;;;;5053946;28;20045;-67
2023/07/31 05:15:29;;;;;;;2.78;1.17;;;16.30;99.90;;;;;;5054188;28;20128;-67
2023/07/31 05:17:55;;;;;;;3.58;1.10;;;16.30;99.90;;;;;;5053931;28;20115;-68
2023/07/31 05:20:21;;;;;;;3.05;1.52;;;16.30;99.90;;;;;;5053715;28;20124;-66
2023/07/31 05:22:47;;;;;;;1.50;1.10;;;16.20;99.90;;;;;;5035732;28;20128;-67
2023/07/31 05:25:13;;;;;;;1.63;0.90;;;16.30;99.90;;;;;;5053549;28;20095;-68
2023/07/31 05:27:38;;;;;;;2.42;1.10;;;16.30;99.90;;;;;;5053750;28;20056;-67
2023/07/31 05:30:05;;;;;;;2.90;2.10;;;16.30;99.90;;;;;;5035964;28;20392;-68
2023/07/31 05:32:31;;;;;;;4.32;1.42;;;16.20;99.90;;;;;;5053625;28;20116;-66
2023/07/31 05:34:56;;;;;;;2.17;1.13;;;16.20;99.90;;;;;;5035618;28;20099;-67
2023/07/31 05:37:22;;;;;;;1.95;1.00;;;16.20;99.90;;;;;;5053426;28;20099;-68
2023/07/31 05:39:48;;;;;;;1.45;1.35;;;16.20;99.90;;;;;;5053539;28;20354;-67
2023/07/31 05:42:14;;;;;;;1.60;1.02;;;16.20;99.90;;;;;;5053443;28;20052;-68
2023/07/31 05:44:39;;;;;;;1.55;1.45;;;16.20;99.90;;;;;;5053216;28;20041;-69
2023/07/31 05:47:05;;;;;;;2.15;1.13;;;16.20;99.90;;;;;;5053071;28;20055;-67
2023/07/31 05:49:31;;;;;;;6.28;2.25;;;16.30;99.90;;;;;;5052725;28;20044;-67
2023/07/31 05:51:57;;;;;;;3.40;1.65;;;16.30;99.90;;;;;;5052590;28;20097;-66
2023/07/31 05:54:22;;;;;;;1.25;1.15;;;16.40;99.90;;;;;;5053302;28;20045;-67
2023/07/31 05:56:48;;;;;;;4.00;1.75;;;16.40;99.90;;;;;;5053476;28;20048;-67
2023/07/31 05:59:14;;;;;;;2.75;1.90;;;16.40;99.90;;;;;;5053470;28;20486;-69
2023/07/31 06:01:40;;;;;;;2.10;1.88;;;16.50;99.90;;;;;;5034964;28;20117;-68
2023/07/31 06:04:05;;;;;;;3.08;2.00;;;16.40;99.90;;;;;;5035443;28;20041;-68
2023/07/31 06:06:31;;;;;;;4.65;2.33;;;16.40;99.90;;;;;;5052818;28;20138;-66
2023/07/31 06:08:57;;;;;;;3.88;2.58;;;16.50;99.90;;;;;;5052814;28;20122;-66
2023/07/31 06:11:23;;;;;;;5.05;2.78;;;16.40;99.90;;;;;;5053603;28;20102;-66
2023/07/31 06:13:49;;;;;;;6.03;3.42;;;16.50;99.90;;;;;;5052933;28;20464;-68
2023/07/31 06:16:16;;;;;;;5.40;3.00;;;16.60;99.90;;;;;;5052689;28;20084;-66
2023/07/31 06:18:42;;;;;;;8.05;3.70;;;16.60;99.90;;;;;;5053187;28;20410;-66
2023/07/31 06:21:09;;;;;;;8.18;4.32;;;16.80;99.90;;;;;;5035672;28;20120;-66
2023/07/31 06:23:35;;;;;;;12.18;5.65;;;16.90;99.90;;;;;;5052792;28;20061;-65
2023/07/31 06:26:01;;;;;;;13.00;6.78;;;17.10;99.90;;;;;;5052805;28;20055;-66
2023/07/31 06:28:31;;;;;;;15.73;7.03;;;17.20;99.90;;;;;;5052680;28;20049;-66
2023/07/31 06:30:57;;;;;;;14.15;7.88;;;17.30;99.90;;;;;;5053205;28;20118;-66
2023/07/31 06:33:23;;;;;;;16.15;7.28;;;17.30;99.90;;;;;;5052541;28;20049;-68
2023/07/31 06:35:49;;;;;;;16.92;8.07;;;17.40;99.90;;;;;;5034910;28;20056;-67
2023/07/31 06:38:14;;;;;;;18.15;8.25;;;17.50;99.90;;;;;;5052534;28;20048;-67
2023/07/31 06:40:40;;;;;;;15.20;6.70;;;17.40;99.90;;;;;;5034761;28;20178;-66
2023/07/31 06:43:09;;;;;;;14.45;7.32;;;17.40;99.90;;;;;;5035100;28;20464;-66
2023/07/31 06:45:36;;;;;;;15.73;7.38;;;17.50;99.90;;;;;;5052109;28;20401;-69
2023/07/31 06:48:02;;;;;;;13.18;7.65;;;17.40;99.90;;;;;;5034808;28;20053;-66
2023/07/31 06:50:31;;;;;;;18.88;7.63;;;17.40;99.90;;;;;;5052569;28;20047;-66
2023/07/31 06:52:57;;;;;;;13.38;7.15;;;17.50;99.90;;;;;;5052753;28;20124;-66
2023/07/31 06:55:23;;;;;;;16.33;7.28;;;17.60;99.90;;;;;;5034520;28;20092;-66
2023/07/31 06:57:51;;;;;;;17.63;6.57;;;17.60;99.90;;;;;;5052994;28;20051;-66
2023/07/31 07:00:19;;;;;;;11.20;6.13;;;17.60;99.90;;;;;;5051442;28;20504;-67
2023/07/31 07:02:47;;;;;;;15.80;6.50;;;17.60;99.90;;;;;;5052731;28;20040;-69
2023/07/31 07:05:13;;;;;;;12.00;6.43;;;17.70;99.90;;;;;;5051945;28;20493;-67
2023/07/31 07:07:39;;;;;;;12.68;6.38;;;17.70;99.90;;;;;;5034540;28;20098;-67
2023/07/31 07:10:05;;;;;;;14.85;7.22;;;17.70;99.90;;;;;;5018581;28;20100;-67
2023/07/31 07:12:32;;;;;;;14.40;5.93;;;17.70;99.90;;;;;;5052400;28;20390;-68
2023/07/31 07:14:59;;;;;;;15.25;6.70;;;17.80;99.90;;;;;;5052042;28;20055;-67
2023/07/31 07:17:26;;;;;;;11.10;5.70;;;17.80;99.90;;;;;;5052068;28;20118;-68
2023/07/31 07:19:52;;;;;;;10.45;5.97;;;17.80;99.90;;;;;;5052499;28;20048;-67
2023/07/31 07:22:18;;;;;;;12.32;6.03;;;17.80;99.90;;;;;;5018320;28;20045;-68
2023/07/31 07:24:44;;;;;;;8.23;5.28;;;17.80;99.90;;;;;;5052297;28;20140;-68
2023/07/31 07:27:09;;;;;;;16.35;6.63;;;17.70;99.90;;;;;;5018576;28;20080;-68
2023/07/31 07:29:35;;;;;;;12.68;4.95;;;17.70;99.90;;;;;;5034435;28;20056;-66
2023/07/31 07:32:01;;;;;;;13.35;6.82;;;17.60;99.90;;;;;;5052272;28;20045;-67
2023/07/31 07:34:27;;;;;;;12.07;5.75;;;17.50;99.90;;;;;;5052601;28;20049;-66
2023/07/31 07:36:53;;;;;;;15.00;5.95;;;17.60;99.90;;;;;;5051992;28;20087;-67
2023/07/31 07:39:20;;;;;;;11.55;5.68;;;17.60;99.90;;;;;;5051986;28;20037;-68
2023/07/31 07:41:46;;;;;;;7.97;4.78;;;17.50;99.90;;;;;;5034969;28;20045;-66
2023/07/31 07:44:12;;;;;;;8.18;4.80;;;17.60;99.90;;;;;;5034118;28;20056;-65
2023/07/31 07:46:38;;;;;;;5.40;4.05;;;17.50;99.90;;;;;;5052439;28;20052;-66
2023/07/31 07:49:04;;;;;;;5.85;3.85;;;17.50;99.90;;;;;;5052349;28;20053;-68
2023/07/31 07:51:31;;;;;;;8.05;3.63;;;17.50;99.90;;;;;;5001462;28;20045;-66
2023/07/31 07:53:58;;;;;;;4.40;3.25;;;17.50;99.90;;;;;;5034244;28;20056;-65
2023/07/31 07:56:25;;;;;;;5.00;3.25;;;17.50;99.90;;;;;;5051829;28;20048;-67
2023/07/31 07:58:51;;;;;;;4.72;3.03;;;17.50;99.90;;;;;;5051815;28;20049;-65
2023/07/31 08:01:17;;;;;;;5.45;3.58;;;17.50;99.90;;;;;;5052077;28;20048;-66
2023/07/31 08:03:43;;;;;;;7.32;3.05;;;17.40;99.90;;;;;;5051702;28;20075;-67
2023/07/31 08:06:09;;;;;;;3.65;2.88;;;17.40;99.90;;;;;;5051799;28;20048;-66
2023/07/31 08:08:35;;;;;;;3.30;2.80;;;17.30;99.90;;;;;;5051724;28;20057;-67
2023/07/31 08:11:01;;;;;;;3.58;2.72;;;17.40;99.90;;;;;;5052187;28;20049;-66
2023/07/31 08:13:27;;;;;;;6.07;3.00;;;17.40;99.90;;;;;;5055193;28;20086;-66
2023/07/31 08:15:52;;;;;;;3.85;2.58;;;17.60;99.90;;;;;;5055248;28;20241;-64
2023/07/31 08:18:19;;;;;;;4.18;2.83;;;17.60;99.90;;;;;;5055118;28;20045;-64
2023/07/31 08:20:44;;;;;;;3.83;2.90;;;17.60;99.90;;;;;;5055663;28;20121;-64
2023/07/31 08:23:10;;;;;;;4.35;2.40;;;17.60;99.90;;;;;;5037349;28;20549;-64
2023/07/31 08:25:36;;;;;;;4.00;2.67;;;17.70;99.90;;;;;;5037471;28;20421;-64
2023/07/31 08:28:03;;;;;;;3.85;2.55;;;17.70;99.90;;;;;;5054966;28;20049;-65
2023/07/31 08:30:28;;;;;;;4.47;2.55;;;17.70;99.90;;;;;;5054839;28;20043;-64
2023/07/31 08:32:54;;;;;;;3.47;2.75;;;17.70;99.90;;;;;;5055075;28;20041;-63
2023/07/31 08:35:20;;;;;;;2.72;2.25;;;17.70;99.90;;;;;;5054887;28;20044;-66
2023/07/31 08:37:45;;;;;;;2.75;2.30;;;17.70;99.90;;;;;;5054778;28;20381;-66
2023/07/31 08:40:11;;;;;;;2.55;1.88;;;17.80;99.90;;;;;;5054689;28;20584;-66
2023/07/31 08:42:48;;;;;;;2.47;2.05;;;17.80;99.90;;;;;;5055095;28;20037;-67
2023/07/31 08:45:17;;;;;;;2.58;1.80;;;17.90;99.90;;;;;;5054751;28;20098;-68
2023/07/31 08:47:51;;;;;;;2.88;1.90;;;17.90;99.90;;;;;;5054534;28;20103;-66
2023/07/31 08:50:21;;;;;;;3.38;1.88;;;17.90;99.90;;;;;;5054667;28;20110;-66
2023/07/31 08:52:48;;;;;;;2.83;1.67;;;18.10;99.90;;;;;;5055143;28;20040;-67
2023/07/31 08:55:14;;;;;;;1.80;1.38;;;18.10;99.90;;;;;;5054551;28;20122;-68
2023/07/31 08:57:42;;;;;;;2.33;1.60;;;18.10;99.90;;;;;;5054377;28;20049;-67
2023/07/31 09:00:09;;;;;;;2.13;1.75;;;18.20;99.90;;;;;;5054376;28;20052;-67
2023/07/31 09:02:41;;;;;;;3.65;1.75;;;18.20;99.90;;;;;;5037004;28;20051;-68
2023/07/31 09:05:07;;;;;;;2.50;1.63;;;18.30;99.90;;;;;;5054265;28;20047;-66
2023/07/31 09:07:36;;;;;;;1.90;1.60;;;18.40;99.90;;;;;;5036445;28;20138;-66
2023/07/31 09:10:04;;;;;;;1.40;1.17;;;18.50;99.90;;;;;;5054123;28;20469;-67
2023/07/31 09:12:30;;;;;;;2.08;1.88;;;18.50;99.90;;;;;;5036619;28;20064;-67
2023/07/31 09:14:57;;;;;;;1.45;1.35;;;18.60;99.90;;;;;;5054225;28;20040;-67
2023/07/31 09:17:34;;;;;;;1.58;1.35;;;18.60;99.90;;;;;;5053979;28;20056;-67
2023/07/31 09:20:25;;;;;;;1.75;1.20;;;18.60;99.90;;;;;;5053963;28;20075;-67
2023/07/31 09:22:52;;;;;;;2.75;1.30;;;18.60;99.90;;;;;;5049322;28;20156;-67
2023/07/31 09:25:22;;;;;;;1.10;1.00;;;18.70;99.90;;;;;;5053954;28;20052;-68
2023/07/31 09:27:55;;;;;;;1.20;1.10;;;18.70;99.90;;;;;;5053729;28;20064;-67
2023/07/31 09:30:21;;;;;;;1.50;1.10;;;18.70;99.90;;;;;;5036149;28;20366;-67
2023/07/31 09:32:49;;;;;;;1.85;1.75;;;18.70;99.90;;;;;;5053707;28;20041;-67
2023/07/31 09:35:27;;;;;;;1.67;1.40;;;18.70;99.90;;;;;;5036336;28;20048;-68
2023/07/31 09:37:55;;;;;;;1.17;1.08;;;18.70;99.90;;;;;;5036060;28;20051;-67
2023/07/31 09:40:28;;;;;;;1.10;1.00;;;18.80;99.90;;;;;;5035984;28;20060;-68
2023/07/31 09:43:02;;;;;;;1.05;0.85;;;18.90;99.90;;;;;;5053504;28;20124;-67
2023/07/31 09:45:28;;;;;;;1.00;0.90;;;19.00;99.90;;;;;;5054067;28;20053;-67
2023/07/31 09:47:55;;;;;;;1.17;0.70;;;19.10;99.90;;;;;;5054066;28;20064;-68
2023/07/31 09:50:22;;;;;;;0.80;0.80;;;19.10;99.90;;;;;;5053741;28;20048;-67
2023/07/31 09:52:48;;;;;;;0.60;0.60;;;19.30;99.90;;;;;;5036115;28;20463;-68
2023/07/31 09:55:14;;;;;;;0.60;0.60;;;19.50;99.90;;;;;;5053755;28;20056;-68
2023/07/31 09:57:44;;;;;;;1.20;0.43;;;19.50;99.90;;;;;;5053765;28;20053;-68
2023/07/31 10:00:11;;;;;;;1.48;0.52;;;19.50;99.90;;;;;;5053588;28;20045;-68
2023/07/31 10:02:38;;;;;;;0.50;0.50;;;19.50;99.90;;;;;;5053139;28;20149;-67
2023/07/31 10:05:06;;;;;;;0.45;0.45;;;19.50;99.90;;;;;;5035502;28;20061;-68
2023/07/31 10:07:36;;;;;;;0.60;0.60;;;19.80;99.90;;;;;;5053527;28;20052;-67
2023/07/31 10:10:04;;;;;;;1.02;0.40;;;19.90;99.90;;;;;;5053299;28;20048;-67
2023/07/31 10:12:32;;;;;;;0.63;0.63;;;20.00;99.90;;;;;;5035711;28;20045;-69
2023/07/31 10:15:00;;;;;;;0.60;0.60;;;19.90;99.90;;;;;;5053060;28;20051;-67
2023/07/31 10:17:26;;;;;;;0.45;0.45;;;20.00;99.90;;;;;;5053542;28;20048;-67
2023/07/31 10:19:53;;;;;;;0.57;0.57;;;20.00;99.90;;;;;;5052993;28;20055;-67
2023/07/31 10:22:21;;;;;;;0.50;0.47;;;20.00;99.90;;;;;;5052778;28;20045;-66
2023/07/31 10:24:48;;;;;;;0.68;0.40;;;19.90;99.90;;;;;;5053400;28;20061;-68
2023/07/31 10:27:14;;;;;;;2.17;2.08;;;19.90;99.90;;;;;;5052763;28;20109;-67
2023/07/31 10:29:42;;;;;;;0.40;0.40;;;19.90;99.90;;;;;;5035401;28;20123;-66
2023/07/31 10:32:11;;;;;;;0.60;0.60;;;20.00;99.90;;;;;;5052899;28;20048;-66
2023/07/31 10:34:38;;;;;;;0.85;0.85;;;20.20;99.90;;;;;;5051944;28;20044;-66
2023/07/31 10:37:25;;;;;;;0.68;0.60;;;20.10;99.90;;;;;;5052716;28;20062;-67
2023/07/31 10:40:05;;;;;;;0.75;0.60;;;20.10;99.90;;;;;;5053184;28;20045;-66
2023/07/31 10:42:33;;;;;;;0.88;0.80;;;20.10;99.90;;;;;;5052917;28;20091;-67
2023/07/31 10:45:02;;;;;;;0.70;0.70;;;20.10;99.90;;;;;;5053016;28;20053;-67
2023/07/31 10:47:27;;;;;;;1.20;0.60;;;20.10;99.90;;;;;;5052524;28;20180;-66
2023/07/31 10:50:21;;;;;;;0.60;0.60;;;20.10;99.90;;;;;;5035200;28;20076;-69
2023/07/31 10:52:49;;;;;;;1.00;0.90;;;20.00;99.90;;;;;;5052984;28;20068;-66
2023/07/31 10:55:26;;;;;;;0.45;0.45;;;20.00;99.90;;;;;;5034955;28;20086;-66
2023/07/31 10:57:53;;;;;;;1.05;0.70;;;19.90;99.90;;;;;;5035091;28;20076;-68
2023/07/31 11:00:26;;;;;;;0.50;0.50;;;20.10;99.90;;;;;;5052615;28;20045;-68
2023/07/31 11:02:59;;;;;;;0.57;0.57;;;20.10;99.90;;;;;;5052363;28;20033;-66
2023/07/31 11:06:02;;;;;;;3.72;0.82;;;20.10;99.90;;;;;;5052534;28;20095;-66
2023/07/31 11:08:35;;;;;;;;;;;19.90;99.90;;;;;;5022906;28;20060;-66
2023/07/31 11:11:10;;;;;;;2.28;0.82;;;19.80;99.90;;;;;;5052571;28;19920;-66
2023/07/31 11:13:51;;;;;;;0.50;0.50;;;19.70;99.90;;;;;;5052526;28;20190;-67
2023/07/31 11:16:19;;;;;;;2.55;0.70;;;19.60;99.90;;;;;;5052358;28;20132;-66
2023/07/31 11:18:47;;;;;;;2.15;0.50;;;19.60;99.90;;;;;;5034639;28;20051;-66
2023/07/31 11:21:23;;;;;;;0.40;0.40;;;19.60;99.90;;;;;;5052259;28;20049;-68
2023/07/31 11:23:50;;;;;;;0.52;0.35;;;19.70;99.90;;;;;;5034266;28;20419;-66
2023/07/31 11:26:17;;;;;;;0.73;0.60;;;19.70;99.90;;;;;;5052125;28;20056;-68
2023/07/31 11:28:46;;;;;;;0.70;0.28;;;19.60;99.90;;;;;;5052515;28;20136;-68
2023/07/31 11:31:11;;;;;;;3.13;0.52;;;19.50;99.90;;;;;;5052238;28;20067;-66
2023/07/31 11:33:37;;;;;;;4.03;0.90;;;19.40;99.90;;;;;;5052035;28;20041;-67
2023/07/31 11:36:04;;;;;;;5.40;0.68;;;19.20;99.90;;;;;;5051997;28;20053;-68
2023/07/31 11:38:31;;;;;;;2.25;0.52;;;19.20;99.90;;;;;;5018689;28;20053;-66
2023/07/31 11:41:02;;;;;;;1.70;0.63;;;19.20;99.90;;;;;;5052056;28;20052;-66
2023/07/31 11:43:28;;;;;;;1.85;0.50;;;19.20;99.90;;;;;;5052155;28;20049;-66
2023/07/31 11:45:58;;;;;;;1.52;0.50;;;19.10;99.90;;;;;;5052094;28;20060;-66
2023/07/31 11:48:33;;;;;;;0.70;0.40;;;19.10;99.90;;;;;;5055739;28;20110;-65
2023/07/31 11:51:04;;;;;;;2.17;0.30;;;19.20;99.90;;;;;;5056244;28;20049;-66
2023/07/31 11:53:45;;;;;;;0.50;0.50;;;19.30;99.90;;;;;;5056150;28;20371;-66
2023/07/31 11:56:14;;;;;;;0.40;0.30;;;19.40;99.90;;;;;;5055867;28;20047;-66
2023/07/31 11:58:41;;;;;;;1.05;0.60;;;19.60;99.90;;;;;;5037892;28;20049;-69
2023/07/31 12:01:07;;;;;;;0.40;0.40;;;19.90;99.90;;;;;;5037885;28;20044;-66
2023/07/31 12:03:33;;;;;;;0.50;0.40;;;20.20;99.90;;;;;;5055157;28;20480;-66
2023/07/31 12:05:59;;;;;;;0.75;0.50;;;20.50;99.90;;;;;;5055313;28;20116;-66
2023/07/31 12:08:26;;;;;;;1.08;0.55;;;20.80;99.90;;;;;;5055599;28;20142;-66
2023/07/31 12:10:52;;;;;;;0.40;0.40;;;21.10;99.90;;;;;;5038036;28;20063;-66
2023/07/31 12:13:23;;;;;;;1.70;0.73;;;21.20;99.90;;;;;;5037751;28;20175;-66
2023/07/31 12:15:53;;;;;;;1.27;0.80;;;21.30;99.90;;;;;;5037822;28;20064;-66
2023/07/31 12:18:20;;;;;;;0.90;0.82;;;21.30;99.90;;;;;;5055307;28;20485;-67
2023/07/31 12:20:47;;;;;;;0.65;0.65;;;21.40;99.90;;;;;;5055176;28;20049;-68
2023/07/31 12:23:30;;;;;;;0.68;0.68;;;21.30;99.90;;;;;;5055644;28;20061;-67
2023/07/31 12:26:15;;;;;;;0.70;0.70;;;21.30;99.90;;;;;;5055209;28;20063;-66
2023/07/31 12:28:49;;;;;;;0.73;0.73;;;21.20;99.90;;;;;;5055441;28;20056;-66
2023/07/31 12:31:19;;;;;;;0.95;0.90;;;21.10;99.90;;;;;;5037621;28;20131;-67
2023/07/31 12:33:46;;;;;;;0.52;0.52;;;21.10;99.90;;;;;;5038032;28;20355;-67
2023/07/31 12:36:14;;;;;;;6.47;1.88;;;21.00;99.90;;;;;;5037215;28;20040;-67
2023/07/31 12:38:41;;;;;;;1.10;0.90;;;21.00;99.90;;;;;;5054936;28;20045;-68
2023/07/31 12:41:07;;;;;;;1.85;0.90;;;21.00;99.90;;;;;;5037233;28;20036;-67
2023/07/31 12:43:37;;;;;;;0.88;0.75;;;20.90;99.90;;;;;;5054813;28;20379;-67
2023/07/31 12:46:03;;;;;;;0.73;0.73;;;20.70;99.90;;;;;;5055040;28;20052;-66
2023/07/31 12:48:29;;;;;;;1.15;1.00;;;20.50;99.90;;;;;;5054664;28;20037;-66